.
WxDataArchive / Data Records for 2015-10-09
2015-10-08 October 2015 2015-10-10

Data Records for Friday, 09 October 2015

Time	Temp	Chill	HIndex	Humid	Dewpt	 Wind 	HiWind	WindDir	Rain 	Barom
-----	----	-----	------	-----	-----	------	------	-------	-----	-----
00:00	67.4	67.4	67.4	73	58.4	0	0	---	0.00	29.866 
00:05	67.3	67.3	67.3	73	58.3	0	0	---	0.00	29.866 
00:10	67.1	67.1	67.1	74	58.5	0	1	315	0.00	29.866 
00:15	67.1	67.1	67.1	74	58.5	0	1	315	0.00	29.860 
00:20	66.9	66.9	66.9	74	58.3	0	1	315	0.00	29.860 
00:25	66.8	66.8	66.8	75	58.6	0	2	315	0.00	29.860 
00:30	66.8	66.8	66.8	75	58.6	0	1	315	0.00	29.853 
00:35	66.6	66.6	66.6	75	58.4	0	2	315	0.00	29.853 
00:40	66.6	66.6	66.6	75	58.4	0	2	315	0.00	29.853 
00:45	66.6	66.6	66.6	75	58.4	0	1	315	0.00	29.848 
00:50	66.4	66.4	66.4	75	58.2	0	1	315	0.00	29.848 
00:55	66.4	66.4	66.4	76	58.6	0	1	315	0.00	29.848 
01:00	66.4	66.4	66.4	76	58.6	0	1	315	0.00	29.847 
01:05	66.4	66.4	66.4	76	58.6	0	2	315	0.00	29.847 
01:10	66.3	66.3	66.3	76	58.5	0	2	315	0.00	29.847 
01:15	66.3	66.3	66.3	76	58.5	0	2	315	0.00	29.844 
01:20	66.3	66.3	66.3	76	58.5	0	2	315	0.00	29.844 
01:25	66.4	66.4	66.4	76	58.6	0	1	315	0.00	29.844 
01:30	66.6	66.6	66.6	76	58.8	0	2	315	0.00	29.846 
01:35	66.8	66.8	66.8	75	58.6	1	3	315	0.00	29.846 
01:40	67.1	67.1	67.1	74	58.5	1	4	315	0.00	29.846 
01:45	67.3	67.3	67.3	74	58.7	1	4	292	0.00	29.852 
01:50	67.3	67.3	67.3	74	58.7	1	5	292	0.00	29.852 
01:55	67.3	67.3	67.3	75	59.1	2	5	270	0.00	29.852 
02:00	67.1	67.1	67.1	76	59.3	0	2	270	0.00	29.846 
02:05	66.9	66.9	66.9	76	59.1	0	1	270	0.00	29.846 
02:10	66.8	66.8	66.8	76	59.0	0	2	270	0.00	29.846 
02:15	66.8	66.8	66.8	76	59.0	1	3	270	0.00	29.842 
02:20	66.9	66.9	66.9	77	59.4	1	5	270	0.00	29.842 
02:25	66.9	66.9	66.9	76	59.1	1	5	270	0.00	29.842 
02:30	67.1	67.1	67.1	77	59.6	0	2	270	0.00	29.843 
02:35	66.9	66.9	66.9	77	59.4	1	4	270	0.00	29.843 
02:40	66.8	66.8	66.8	78	59.7	1	4	270	0.00	29.843 
02:45	66.6	66.6	66.6	79	59.9	0	3	270	0.00	29.849 
02:50	66.4	66.4	66.4	80	60.0	0	3	270	0.00	29.849 
02:55	66.1	66.1	66.1	81	60.1	0	4	270	0.01	29.849 
03:00	65.8	65.8	65.8	83	60.5	0	2	270	0.00	29.854 
03:05	65.2	65.2	65.2	85	60.6	0	3	270	0.01	29.854 
03:10	64.8	64.8	64.8	86	60.5	0	1	270	0.00	29.854 
03:15	64.7	64.7	64.7	87	60.7	0	1	270	0.00	29.845 
03:20	64.3	64.3	64.3	88	60.7	0	1	270	0.00	29.845 
03:25	64.2	64.2	64.2	88	60.6	0	2	270	0.00	29.845 
03:30	64.0	64.0	64.0	88	60.4	0	0	---	0.00	29.844 
03:35	63.9	63.9	63.9	89	60.6	0	0	---	0.00	29.844 
03:40	63.7	63.7	63.7	89	60.4	0	1	270	0.00	29.844 
03:45	63.5	63.5	63.5	90	60.5	0	0	---	0.00	29.838 
03:50	63.5	63.5	63.5	90	60.5	0	0	---	0.00	29.838 
03:55	63.4	63.4	63.4	90	60.4	0	0	---	0.00	29.838 
04:00	63.4	63.4	63.4	90	60.4	0	0	---	0.00	29.832 
04:05	63.2	63.2	63.2	91	60.5	0	0	---	0.00	29.832 
04:10	63.2	63.2	63.2	91	60.5	0	0	---	0.00	29.832 
04:15	63.1	63.1	63.1	91	60.4	0	0	---	0.00	29.831 
04:20	63.1	63.1	63.1	91	60.4	0	0	---	0.00	29.831 
04:25	62.9	62.9	62.9	91	60.2	0	1	270	0.00	29.831 
04:30	62.9	62.9	62.9	91	60.2	0	0	---	0.00	29.830 
04:35	62.9	62.9	62.9	91	60.2	0	0	---	0.00	29.830 
04:40	62.9	62.9	62.9	92	60.5	0	1	270	0.00	29.830 
04:45	62.7	62.7	62.7	92	60.3	0	0	---	0.00	29.829 
04:50	62.7	62.7	62.7	92	60.3	0	0	---	0.00	29.829 
04:55	62.7	62.7	62.7	92	60.3	0	1	270	0.00	29.829 
05:00	62.7	62.7	62.7	92	60.3	0	0	---	0.00	29.830 
05:05	62.6	62.6	62.6	92	60.2	0	0	---	0.00	29.830 
05:10	62.6	62.6	62.6	92	60.2	0	0	---	0.00	29.830 
05:15	62.6	62.6	62.6	92	60.2	0	1	270	0.00	29.833 
05:20	62.6	62.6	62.6	92	60.2	0	0	---	0.00	29.833 
05:25	62.6	62.6	62.6	92	60.2	0	1	270	0.00	29.833 
05:30	62.6	62.6	62.6	92	60.2	0	0	---	0.00	29.837 
05:35	62.6	62.6	62.6	92	60.2	0	0	---	0.00	29.837 
05:40	62.6	62.6	62.6	92	60.2	0	0	---	0.00	29.837 
05:45	62.4	62.4	62.4	92	60.0	0	0	---	0.00	29.842 
05:50	62.4	62.4	62.4	92	60.0	0	1	270	0.00	29.842 
05:55	62.4	62.4	62.4	92	60.0	0	1	270	0.00	29.842 
06:00	62.3	62.3	62.3	92	59.9	0	0	---	0.00	29.847 
06:05	62.3	62.3	62.3	92	59.9	0	1	270	0.00	29.847 
06:10	62.1	62.1	62.1	92	59.7	0	0	---	0.00	29.847 
06:15	62.1	62.1	62.1	92	59.7	0	1	270	0.00	29.860 
06:20	62.0	62.0	62.0	92	59.6	0	1	270	0.00	29.860 
06:25	62.0	62.0	62.0	92	59.6	0	2	270	0.00	29.860 
06:30	62.1	62.1	62.1	92	59.7	0	2	270	0.00	29.863 
06:35	62.3	62.3	62.3	92	59.9	1	4	270	0.00	29.863 
06:40	62.4	62.4	62.4	92	60.0	1	3	270	0.00	29.863 
06:45	62.4	62.4	62.4	91	59.7	2	4	270	0.00	29.864 
06:50	62.4	62.4	62.4	91	59.7	1	3	270	0.00	29.864 
06:55	62.6	62.6	62.6	91	59.9	1	3	270	0.00	29.864 
07:00	62.6	62.6	62.6	91	59.9	1	2	270	0.00	29.875 
07:05	62.6	62.6	62.6	91	59.9	1	3	270	0.00	29.875 
07:10	62.6	62.6	62.6	91	59.9	1	2	270	0.00	29.875 
07:15	62.6	62.6	62.6	91	59.9	1	3	270	0.00	29.879 
07:20	62.6	62.6	62.6	91	59.9	1	3	270	0.00	29.879 
07:25	62.6	62.6	62.6	91	59.9	1	4	270	0.00	29.879 
07:30	62.4	62.4	62.4	91	59.7	1	3	270	0.00	29.881 
07:35	62.4	62.4	62.4	91	59.7	1	3	270	0.00	29.881 
07:40	62.4	62.4	62.4	91	59.7	1	3	270	0.00	29.881 
07:45	62.4	62.4	62.4	91	59.7	2	4	270	0.00	29.888 
07:50	62.3	62.3	62.3	90	59.3	2	5	338	0.00	29.888 
07:55	62.1	62.1	62.1	90	59.1	2	7	315	0.00	29.888 
08:00	62.0	62.0	62.0	89	58.7	3	5	338	0.00	29.896 
08:05	61.6	61.6	61.6	89	58.3	3	7	292	0.00	29.896 
08:10	60.5	60.5	60.5	88	56.9	3	9	292	0.00	29.896 
08:15	59.8	59.8	59.8	87	55.9	2	6	315	0.00	29.915 
08:20	59.3	59.3	59.3	87	55.4	2	6	338	0.00	29.915 
08:25	59.2	59.2	59.2	87	55.3	2	5	292	0.00	29.915 
08:30	59.0	59.0	59.0	86	54.8	1	5	292	0.00	29.927 
08:35	58.9	58.9	58.9	85	54.4	2	9	315	0.00	29.927 
08:40	58.7	58.7	58.7	84	53.9	1	5	292	0.00	29.927 
08:45	58.7	58.7	58.7	82	53.2	1	6	292	0.00	29.933 
08:50	58.7	58.7	58.7	82	53.2	1	3	292	0.00	29.933 
08:55	58.7	58.7	58.7	81	52.9	1	3	292	0.00	29.933 
09:00	58.7	58.7	58.7	81	52.9	1	4	292	0.00	29.939 
09:05	58.6	58.6	58.6	80	52.4	1	5	0	0.00	29.939 
09:10	58.6	58.6	58.6	80	52.4	1	4	315	0.00	29.939 
09:15	58.6	58.6	58.6	80	52.4	0	3	292	0.00	29.949 
09:20	58.7	58.7	58.7	79	52.2	1	4	315	0.00	29.949 
09:25	58.6	58.6	58.6	79	52.1	1	4	315	0.00	29.949 
09:30	58.6	58.6	58.6	79	52.1	1	6	315	0.00	29.952 
09:35	58.6	58.6	58.6	79	52.1	1	5	315	0.00	29.952 
09:40	58.4	58.4	58.4	79	51.9	1	5	315	0.00	29.952 
09:45	58.3	58.3	58.3	78	51.5	1	5	292	0.00	29.965 
09:50	58.3	58.3	58.3	79	51.8	1	3	292	0.00	29.965 
09:55	58.3	58.3	58.3	79	51.8	1	3	292	0.00	29.965 
10:00	58.4	58.4	58.4	78	51.6	1	4	292	0.00	29.982 
10:05	58.6	58.6	58.6	78	51.8	1	4	292	0.00	29.982 
10:10	58.7	58.7	58.7	77	51.5	1	3	292	0.00	29.982 
10:15	59.0	59.0	59.0	78	52.1	0	3	292	0.00	29.986 
10:20	59.0	59.0	59.0	77	51.8	2	5	292	0.00	29.986 
10:25	59.2	59.2	59.2	77	52.0	0	2	338	0.00	29.986 
10:30	59.2	59.2	59.2	77	52.0	1	3	315	0.00	29.995 
10:35	59.0	59.0	59.0	77	51.8	1	4	315	0.00	29.995 
10:40	59.0	59.0	59.0	76	51.4	3	5	292	0.00	29.995 
10:45	58.9	58.9	58.9	77	51.7	2	7	338	0.00	30.000 
10:50	59.0	59.0	59.0	76	51.4	2	9	315	0.00	30.000 
10:55	59.0	59.0	59.0	76	51.4	2	7	315	0.00	30.000 
11:00	58.9	58.9	58.9	75	51.0	2	6	338	0.00	30.005 
11:05	58.9	58.9	58.9	74	50.6	2	7	338	0.00	30.005 
11:10	58.9	58.9	58.9	75	51.0	2	7	338	0.00	30.005 
11:15	58.9	58.9	58.9	75	51.0	2	6	292	0.00	30.011 
11:20	58.9	58.9	58.9	75	51.0	2	4	292	0.00	30.011 
11:25	58.7	58.7	58.7	74	50.4	2	7	338	0.00	30.011 
11:30	58.7	58.7	58.7	75	50.8	2	5	315	0.00	30.015 
11:35	58.7	58.7	58.7	75	50.8	1	3	292	0.00	30.015 
11:40	58.7	58.7	58.7	76	51.2	1	4	292	0.00	30.015 
11:45	58.7	58.7	58.7	74	50.4	3	5	292	0.00	30.022 
11:50	58.7	58.7	58.7	74	50.4	3	8	292	0.00	30.022 
11:55	58.7	58.7	58.7	74	50.4	2	5	292	0.00	30.022 
12:00	58.7	58.7	58.7	74	50.4	1	6	292	0.00	30.027 
12:05	58.6	58.6	58.6	74	50.3	1	4	315	0.00	30.027 
12:10	58.4	58.4	58.4	74	50.1	2	6	338	0.00	30.027 
12:15	58.4	58.4	58.4	75	50.5	1	6	338	0.00	30.033 
12:20	58.4	58.4	58.4	75	50.5	1	4	292	0.00	30.033 
12:25	58.4	58.4	58.4	74	50.1	2	5	315	0.00	30.033 
12:30	58.6	58.6	58.6	73	50.0	2	5	292	0.00	30.034 
12:35	58.7	58.7	58.7	73	50.1	1	5	292	0.00	30.034 
12:40	58.9	58.9	58.9	72	49.9	1	5	292	0.00	30.034 
12:45	59.3	59.3	59.3	71	49.9	2	5	292	0.00	30.033 
12:50	59.3	59.3	59.3	69	49.1	4	8	292	0.00	30.033 
12:55	59.3	59.3	59.3	69	49.1	2	6	292	0.00	30.033 
13:00	59.3	59.3	59.3	68	48.7	3	9	338	0.00	30.033 
13:05	59.5	59.5	59.5	68	48.9	2	6	315	0.00	30.033 
13:10	59.8	59.8	59.8	68	49.2	2	6	292	0.00	30.033 
13:15	59.8	59.8	59.8	68	49.2	2	6	270	0.00	30.036 
13:20	59.6	59.6	59.6	67	48.6	2	6	315	0.00	30.036 
13:25	59.6	59.6	59.6	68	49.0	2	6	315	0.00	30.036 
13:30	59.6	59.6	59.6	67	48.6	2	5	338	0.00	30.034 
13:35	59.8	59.8	59.8	69	49.6	0	3	292	0.00	30.034 
13:40	60.1	60.1	60.1	67	49.1	1	4	292	0.00	30.034 
13:45	60.2	60.2	60.2	66	48.8	2	5	315	0.00	30.034 
13:50	60.4	60.4	60.4	67	49.4	1	5	292	0.00	30.034 
13:55	60.7	60.7	60.7	65	48.9	1	5	292	0.00	30.034 
14:00	60.7	60.7	60.7	65	48.9	1	6	315	0.00	30.032 
14:05	60.5	60.5	60.5	65	48.7	0	3	315	0.00	30.032 
14:10	60.5	60.5	60.5	65	48.7	1	6	292	0.00	30.032 
14:15	60.5	60.5	60.5	65	48.7	1	4	292	0.00	30.031 
14:20	60.5	60.5	60.5	64	48.3	2	7	292	0.00	30.031 
14:25	60.5	60.5	60.5	64	48.3	2	6	0	0.00	30.031 
14:30	60.4	60.4	60.4	65	48.6	2	5	338	0.00	30.034 
14:35	60.4	60.4	60.4	65	48.6	1	3	338	0.00	30.034 
14:40	60.4	60.4	60.4	65	48.6	1	5	338	0.00	30.034 
14:45	60.4	60.4	60.4	64	48.2	2	7	315	0.00	30.035 
14:50	60.4	60.4	60.4	65	48.6	0	3	315	0.00	30.035 
14:55	60.4	60.4	60.4	65	48.6	1	4	315	0.00	30.035 
15:00	60.5	60.5	60.5	65	48.7	1	4	315	0.00	30.032 
15:05	60.4	60.4	60.4	65	48.6	1	4	315	0.00	30.032 
15:10	60.4	60.4	60.4	65	48.6	1	4	315	0.00	30.032 
15:15	60.2	60.2	60.2	65	48.4	1	3	315	0.00	30.035 
15:20	60.2	60.2	60.2	66	48.8	1	4	315	0.00	30.035 
15:25	60.1	60.1	60.1	65	48.3	2	6	292	0.00	30.035 
15:30	59.9	59.9	59.9	65	48.1	1	3	315	0.00	30.034 
15:35	59.9	59.9	59.9	65	48.1	1	4	315	0.00	30.034 
15:40	59.8	59.8	59.8	65	48.0	1	3	292	0.00	30.034 
15:45	59.8	59.8	59.8	66	48.4	1	5	292	0.00	30.034 
15:50	59.6	59.6	59.6	67	48.6	1	4	0	0.00	30.034 
15:55	59.6	59.6	59.6	68	49.0	0	1	338	0.00	30.034 
16:00	59.6	59.6	59.6	67	48.6	2	5	338	0.00	30.037 
16:05	59.6	59.6	59.6	67	48.6	1	3	292	0.00	30.037 
16:10	59.6	59.6	59.6	67	48.6	0	3	292	0.00	30.037 
16:15	59.6	59.6	59.6	67	48.6	0	2	292	0.00	30.036 
16:20	59.6	59.6	59.6	67	48.6	0	3	292	0.00	30.036 
16:25	59.6	59.6	59.6	66	48.2	1	3	292	0.00	30.036 
16:30	59.6	59.6	59.6	66	48.2	0	3	292	0.00	30.041 
16:35	59.8	59.8	59.8	66	48.4	0	3	292	0.00	30.041 
16:40	60.1	60.1	60.1	65	48.3	0	2	292	0.00	30.041 
16:45	60.2	60.2	60.2	65	48.4	0	2	292	0.00	30.048 
16:50	60.4	60.4	60.4	63	47.7	0	2	292	0.00	30.048 
16:55	60.5	60.5	60.5	63	47.8	1	4	315	0.00	30.048 
17:00	60.7	60.7	60.7	63	48.0	1	4	315	0.00	30.047 
17:05	60.9	60.9	60.9	62	47.8	1	4	315	0.00	30.047 
17:10	60.9	60.9	60.9	63	48.2	0	1	315	0.00	30.047 
17:15	60.7	60.7	60.7	63	48.0	1	3	315	0.00	30.048 
17:20	60.4	60.4	60.4	63	47.7	1	3	270	0.00	30.048 
17:25	60.2	60.2	60.2	63	47.6	1	3	0	0.00	30.048 
17:30	60.4	60.4	60.4	62	47.3	1	3	0	0.00	30.045 
17:35	60.4	60.4	60.4	62	47.3	1	3	338	0.00	30.045 
17:40	60.4	60.4	60.4	61	46.9	1	4	292	0.00	30.045 
17:45	60.2	60.2	60.2	61	46.7	0	3	292	0.00	30.051 
17:50	59.9	59.9	59.9	61	46.4	1	5	292	0.00	30.051 
17:55	59.9	59.9	59.9	61	46.4	0	2	292	0.00	30.051 
18:00	59.8	59.8	59.8	61	46.3	0	1	292	0.00	30.060 
18:05	59.9	59.9	59.9	62	46.8	0	3	292	0.00	30.060 
18:10	60.1	60.1	60.1	61	46.6	1	4	292	0.00	30.060 
18:15	60.1	60.1	60.1	61	46.6	1	3	292	0.00	30.068 
18:20	60.1	60.1	60.1	62	47.0	0	2	292	0.00	30.068 
18:25	59.9	59.9	59.9	62	46.8	1	4	292	0.00	30.068 
18:30	59.9	59.9	59.9	62	46.8	0	4	315	0.00	30.078 
18:35	59.8	59.8	59.8	62	46.8	0	1	315	0.00	30.078 
18:40	59.6	59.6	59.6	62	46.6	0	4	315	0.00	30.078 
18:45	59.3	59.3	59.3	62	46.3	0	4	315	0.00	30.080 
18:50	59.2	59.2	59.2	61	45.8	1	3	315	0.00	30.080 
18:55	59.0	59.0	59.0	62	46.0	0	3	315	0.00	30.080 
19:00	58.9	58.9	58.9	62	45.9	1	5	315	0.00	30.084 
19:05	58.9	58.9	58.9	62	45.9	1	6	292	0.00	30.084 
19:10	58.9	58.9	58.9	63	46.3	1	3	292	0.00	30.084 
19:15	58.7	58.7	58.7	64	46.6	1	4	315	0.00	30.090 
19:20	58.7	58.7	58.7	64	46.6	0	4	22	0.00	30.090 
19:25	58.6	58.6	58.6	65	46.9	0	3	315	0.00	30.090 
19:30	58.4	58.4	58.4	65	46.7	0	3	315	0.00	30.099 
19:35	58.3	58.3	58.3	64	46.2	1	4	292	0.00	30.099 
19:40	58.3	58.3	58.3	62	45.3	1	5	292	0.00	30.099 
19:45	58.3	58.3	58.3	62	45.3	1	3	292	0.00	30.108 
19:50	58.3	58.3	58.3	62	45.3	0	1	292	0.00	30.108 
19:55	58.3	58.3	58.3	62	45.3	0	3	292	0.00	30.108 
20:00	58.1	58.1	58.1	62	45.1	0	3	315	0.00	30.113 
20:05	58.1	58.1	58.1	62	45.1	1	5	315	0.00	30.113 
20:10	58.0	58.0	58.0	61	44.6	2	5	315	0.00	30.113 
20:15	58.0	58.0	58.0	60	44.2	1	4	158	0.00	30.118 
20:20	57.8	57.8	57.8	59	43.6	0	3	0	0.00	30.118 
20:25	57.6	57.6	57.6	58	42.9	0	2	22	0.00	30.118 
20:30	57.5	57.5	57.5	58	42.8	0	5	112	0.00	30.123 
20:35	57.5	57.5	57.5	58	42.8	0	1	338	0.00	30.123 
20:40	57.5	57.5	57.5	58	42.8	0	3	292	0.00	30.123 
20:45	57.3	57.3	57.3	58	42.6	0	1	292	0.00	30.131 
20:50	57.0	57.0	57.0	59	42.8	0	2	270	0.00	30.131 
20:55	56.9	56.9	56.9	60	43.2	0	0	---	0.00	30.131 
21:00	56.6	56.6	56.6	61	43.3	0	1	158	0.00	30.133 
21:05	56.3	56.3	56.3	61	43.0	0	0	---	0.00	30.133 
21:10	56.2	56.2	56.2	62	43.4	0	0	---	0.00	30.133 
21:15	55.7	55.7	55.7	63	43.3	0	0	---	0.00	30.136 
21:20	55.4	55.4	55.4	64	43.4	0	0	---	0.00	30.136 
21:25	55.1	55.1	55.1	65	43.5	0	0	---	0.00	30.136 
21:30	54.8	54.8	54.8	66	43.7	0	0	---	0.00	30.142 
21:35	54.5	54.5	54.5	68	44.2	0	0	---	0.00	30.142 
21:40	54.4	54.4	54.4	69	44.4	0	0	---	0.00	30.142 
21:45	54.2	54.2	54.2	69	44.3	0	0	---	0.00	30.142 
21:50	54.1	54.1	54.1	70	44.5	0	0	---	0.00	30.142 
21:55	53.9	53.9	53.9	70	44.3	0	0	---	0.00	30.142 
22:00	53.9	53.9	53.9	71	44.7	0	0	---	0.00	30.139 
22:05	53.8	53.8	53.8	72	45.0	0	0	---	0.00	30.139 
22:10	53.8	53.8	53.8	73	45.3	0	0	---	0.00	30.139 
22:15	53.8	53.8	53.8	73	45.3	0	0	---	0.00	30.142 
22:20	53.6	53.6	53.6	73	45.2	0	0	---	0.00	30.142 
22:25	53.6	53.6	53.6	73	45.2	0	0	---	0.00	30.142 
22:30	53.5	53.5	53.5	73	45.1	0	0	---	0.00	30.147 
22:35	53.3	53.3	53.3	73	44.9	0	0	---	0.00	30.147 
22:40	53.2	53.2	53.2	73	44.8	0	0	---	0.00	30.147 
22:45	53.1	53.1	53.1	73	44.7	0	0	---	0.00	30.152 
22:50	52.9	52.9	52.9	74	44.8	0	0	---	0.00	30.152 
22:55	52.8	52.8	52.8	74	44.7	0	0	---	0.00	30.152 
23:00	52.8	52.8	52.8	74	44.7	0	0	---	0.00	30.154 
23:05	52.8	52.8	52.8	74	44.7	0	0	---	0.00	30.154 
23:10	52.6	52.6	52.6	74	44.6	0	0	---	0.00	30.154 
23:15	52.3	52.3	52.3	74	44.3	0	0	---	0.00	30.163 
23:20	52.2	52.2	52.2	74	44.2	0	0	---	0.00	30.163 
23:25	51.9	51.9	51.9	75	44.2	0	0	---	0.00	30.163 
23:30	51.6	51.6	51.6	76	44.3	0	0	---	0.00	30.164 
23:35	51.4	51.4	51.4	76	44.1	0	0	---	0.00	30.164 
23:40	51.1	51.1	51.1	77	44.1	0	0	---	0.00	30.164 
23:45	50.8	50.8	50.8	77	43.9	0	0	---	0.00	30.166 
23:50	50.4	50.4	50.4	78	43.8	0	0	---	0.00	30.166 
23:55	49.9	49.9	49.9	79	43.6	0	0	---	0.00	30.166 

CoCoRaHS
IN-AL-39
A2 Web Hosting
Creative Commons License
GoDaddy
search engine by freefind advanced

loaded 2018-11-16 00:10:51 • last modified 2010-11-18 10:43:29
Privacy PolicyDisclaimer
• wx.awcolley.com is powered by PmWiki v.2002016 •
• all content (unless otherwise noted) © 2018 A W Colley